Fall Rock, Kentucky
Current Conditions -  °F | °C
As of 11:53 AM on Friday 24 Oct 2014 (Local Time) from KLOZ Reporting Station
Clear Clear  
Wind Chill: 56°   Ceiling: Unl
Heat Index: 56°   Visibility: 10mi
Dew Point: 44°   Wind: 3mph
Humidity: 64%   Direction: 160°SSE
Pressure: 30.13"   Gusts: NA
Location:  37.22°N, 83.79°W
Report Text: KLOZ 241553Z AUTO 16003KT 10SM CLR 13/07 A3013 RMK AO2 SLP202 T01330067
Loading
Personal Weather Stations






























Interactive Weather Map
Tropical Storm Tracking
New forecast layout! Learn more

10-Day Weather Forecast

Advertisements
Track Severe Weather on mobile